KSHR/SHR METAR and TAF weather

Enter ICAO airport designator
Station Type Date Time Source
KSHR METAR 2019/12/09 05:53 UTC NOAA

KSHR 090553Z AUTO 31007KT 10SM CLR M11/M14 A2999 RMK AO2 SLP200 60000 T11111139 11061 21111 53016


Station Type Date Time Source
KSHR Decoded METAR 2019/12/09 05:53 UTC NOAA

SHERIDAN COUNTY AIRPORT, WY, United States (KSHR) 44-46N 106-58W 1202M
Dec 09, 2019 - 12:53 AM EST / 2019.12.09 0553 UTC
Wind: from the NW (310 degrees) at 8 MPH (7 KT):0
Visibility: 10 mile(s):0
Sky conditions: clear
Temperature: 12.0 F (-11.1 C)
Windchill: 0 F (-18 C):1
Dew Point: 7.0 F (-13.9 C)
Relative Humidity: 79%
Pressure (altimeter): 29.99 in. Hg (1015 hPa)
Pressure tendency: 0.05 inches (1.6 hPa) higher than three hours ago
ob: KSHR 090553Z AUTO 31007KT 10SM CLR M11/M14 A2999 RMK AO2 SLP200 60000 T11111139 11061 21111 53016
cycle: 6

Station Type Date Time Source
KSHR TAF 2019/12/09 06:33 UTC NOAA

TAF KSHR 090531Z 0906/1006 33010KT P6SM VCSH OVC045
FM090800 26006KT P6SM OVC070
FM091600 32015KT P6SM BKN100

Example: see airport list